Time;durP1;ratioP1;P1;durP2;ratioP2;P2;SDS_P1;SDS_P2;PMS_P1;PMS_P2;Temp;Humidity;BMP_temperature;BMP_pressure;BME280_temperature;BME280_humidity;BME280_pressure;Samples;Min_cycle;Max_cycle;Signal;HPM_P1;HPM_P2
2021/12/04 00:00:42;;;;;;;34.72;15.20;;;;;;;-0.45;100.00;100819.53;5042041;28;20021;-64
2021/12/04 00:03:08;;;;;;;38.08;15.13;;;;;;;-0.40;100.00;100807.88;5044304;28;20116;-64
2021/12/04 00:05:33;;;;;;;42.80;17.60;;;;;;;-0.45;100.00;100799.50;5049767;28;20035;-63
2021/12/04 00:07:59;;;;;;;39.35;14.88;;;;;;;-0.35;100.00;100805.84;5053802;28;20053;-64
2021/12/04 00:10:28;;;;;;;32.53;14.82;;;;;;;-0.39;100.00;100804.34;5050664;28;20132;-65
2021/12/04 00:12:54;;;;;;;32.47;16.15;;;;;;;-0.46;100.00;100794.41;5044879;28;20489;-65
2021/12/04 00:15:20;;;;;;;28.77;14.20;;;;;;;-0.46;100.00;100789.19;5052680;28;20044;-63
2021/12/04 00:17:45;;;;;;;33.45;15.30;;;;;;;-0.48;100.00;100785.84;5052332;28;20025;-65
2021/12/04 00:20:12;;;;;;;28.13;14.15;;;;;;;-0.43;100.00;100800.28;5054959;28;20061;-65
2021/12/04 00:22:38;;;;;;;34.35;14.70;;;;;;;-0.48;100.00;100802.31;5052596;28;20037;-65
2021/12/04 00:25:04;;;;;;;38.58;15.38;;;;;;;-0.46;100.00;100797.00;5054797;28;20051;-65
2021/12/04 00:27:30;;;;;;;32.78;14.73;;;;;;;-0.46;100.00;100787.41;5048497;28;20075;-65
2021/12/04 00:29:57;;;;;;;32.33;14.15;;;;;;;-0.46;100.00;100795.25;5054841;28;20021;-63
2021/12/04 00:32:31;;;;;;;31.55;15.50;;;;;;;-0.50;100.00;100804.19;5052428;28;20445;-64
2021/12/04 00:35:14;;;;;;;48.63;15.70;;;;;;;-0.41;100.00;100805.38;5054705;28;20041;-64
2021/12/04 00:43:25;;;;;;;34.33;14.43;;;;;;;-0.43;100.00;100792.47;5047256;28;19923;-65
2021/12/04 00:51:19;;;;;;;42.40;16.30;;;;;;;-0.36;100.00;100798.13;5053453;28;19963;-64
2021/12/04 00:53:47;;;;;;;42.67;17.50;;;;;;;-0.34;100.00;100796.25;5049082;28;20075;-65
2021/12/04 00:56:13;;;;;;;42.00;17.58;;;;;;;-0.34;100.00;100807.50;5042300;28;20037;-64
2021/12/04 00:58:38;;;;;;;31.98;14.40;;;;;;;-0.39;100.00;100806.13;5053942;28;20052;-65
2021/12/04 01:01:04;;;;;;;36.22;15.75;;;;;;;-0.36;100.00;100803.31;5053048;28;20057;-64
2021/12/04 01:03:33;;;;;;;47.15;16.10;;;;;;;-0.38;100.00;100802.56;5052797;28;20029;-64
2021/12/04 01:05:58;;;;;;;32.33;16.73;;;;;;;-0.33;100.00;100797.91;5052874;28;20028;-67
2021/12/04 01:08:24;;;;;;;33.72;16.83;;;;;;;-0.33;100.00;100797.91;5039386;28;20026;-64
2021/12/04 01:10:49;;;;;;;37.95;16.08;;;;;;;-0.37;100.00;100802.50;5040768;28;20036;-66
2021/12/04 01:13:15;;;;;;;27.63;15.60;;;;;;;-0.39;100.00;100798.28;5047592;28;20072;-63
2021/12/04 01:15:44;;;;;;;30.77;14.88;;;;;;;-0.40;100.00;100796.63;5040687;28;20025;-63
2021/12/04 01:18:11;;;;;;;26.38;16.00;;;;;;;-0.43;100.00;100791.63;5053063;28;20025;-65
2021/12/04 01:20:37;;;;;;;35.08;15.70;;;;;;;-0.49;100.00;100786.78;5053232;28;20036;-64
2021/12/04 01:23:03;;;;;;;31.05;14.57;;;;;;;-0.43;100.00;100789.00;5051330;28;20394;-64
2021/12/04 01:25:30;;;;;;;42.13;16.30;;;;;;;-0.42;100.00;100790.69;5052748;28;20036;-65
2021/12/04 01:27:55;;;;;;;35.42;14.68;;;;;;;-0.47;100.00;100793.56;5052186;28;20485;-65
2021/12/04 01:30:21;;;;;;;33.75;17.23;;;;;;;-0.64;100.00;100765.16;5053538;28;20036;-64
2021/12/04 01:32:47;;;;;;;36.78;15.27;;;;;;;-0.50;100.00;100779.91;5053525;28;20040;-65
2021/12/04 01:35:12;;;;;;;35.63;16.17;;;;;;;-0.57;100.00;100789.88;5051948;28;20028;-64
2021/12/04 01:37:38;;;;;;;31.17;15.02;;;;;;;-0.56;100.00;100799.38;5044122;28;20021;-66
2021/12/04 01:40:05;;;;;;;36.88;16.73;;;;;;;-0.58;100.00;100801.25;5050954;28;20029;-63
2021/12/04 01:42:34;;;;;;;29.77;16.73;;;;;;;-0.56;100.00;100795.00;5052963;28;20017;-65
2021/12/04 01:45:00;;;;;;;35.22;15.80;;;;;;;-0.71;100.00;100784.72;5052391;28;20028;-64
2021/12/04 01:47:25;;;;;;;30.95;15.02;;;;;;;-0.63;100.00;100804.13;5051928;28;20378;-66
2021/12/04 01:49:53;;;;;;;36.17;15.63;;;;;;;-0.58;100.00;100799.47;5048028;28;20075;-64
2021/12/04 01:52:18;;;;;;;22.00;14.93;;;;;;;-0.64;100.00;100799.84;5038196;28;20036;-65
2021/12/04 01:54:46;;;;;;;32.40;15.70;;;;;;;-0.64;100.00;100786.84;5051938;28;20017;-64
2021/12/04 01:57:14;;;;;;;32.10;15.88;;;;;;;-0.53;100.00;100804.38;5050714;28;20124;-64
2021/12/04 01:59:40;;;;;;;38.25;15.20;;;;;;;-0.51;100.00;100802.53;5051756;28;20496;-65
2021/12/04 02:02:06;;;;;;;26.85;14.52;;;;;;;-0.58;100.00;100794.25;5050492;28;20020;-64
2021/12/04 02:04:31;;;;;;;36.10;16.27;;;;;;;-0.53;100.00;100798.34;5039575;28;20030;-65
2021/12/04 02:06:57;;;;;;;35.38;15.35;;;;;;;-0.63;100.00;100785.06;5037578;28;20390;-64
2021/12/04 02:09:22;;;;;;;24.50;14.75;;;;;;;-0.67;100.00;100775.75;5050412;28;20066;-65
2021/12/04 02:11:48;;;;;;;36.53;15.65;;;;;;;-0.64;100.00;100776.41;5050350;28;20048;-62
2021/12/04 02:14:13;;;;;;;30.70;15.00;;;;;;;-0.57;100.00;100779.47;5052831;28;20035;-66
2021/12/04 02:16:39;;;;;;;27.90;14.35;;;;;;;-0.57;100.00;100785.50;5050331;28;20028;-64
2021/12/04 02:19:05;;;;;;;24.67;14.43;;;;;;;-0.55;100.00;100785.41;5038939;28;20029;-65
2021/12/04 02:21:31;;;;;;;34.35;15.98;;;;;;;-0.61;100.00;100784.00;5050464;28;20032;-65
2021/12/04 02:23:57;;;;;;;31.83;15.10;;;;;;;-0.60;100.00;100777.03;5051228;28;20095;-64
2021/12/04 02:26:23;;;;;;;32.13;17.23;;;;;;;-0.75;100.00;100776.22;5051806;28;20049;-65
2021/12/04 02:28:49;;;;;;;34.88;16.70;;;;;;;-0.79;100.00;100768.72;5050809;28;20035;-66
2021/12/04 02:31:15;;;;;;;28.10;14.95;;;;;;;-0.68;100.00;100768.88;5046749;28;20021;-64
2021/12/04 02:33:40;;;;;;;25.35;13.13;;;;;;;-0.72;100.00;100768.25;5037740;28;20100;-66
2021/12/04 02:36:07;;;;;;;26.88;14.07;;;;;;;-0.82;100.00;100756.72;5050023;28;20033;-66
2021/12/04 02:38:33;;;;;;;29.40;14.52;;;;;;;-0.87;100.00;100758.78;5051182;28;20379;-66
2021/12/04 02:41:00;;;;;;;28.25;14.55;;;;;;;-0.80;100.00;100769.66;5049902;28;20032;-65
2021/12/04 02:43:27;;;;;;;33.05;14.07;;;;;;;-0.86;100.00;100776.91;5049786;28;20057;-64
2021/12/04 02:45:53;;;;;;;20.10;12.57;;;;;;;-0.94;100.00;100760.94;5050146;28;20020;-66
2021/12/04 02:48:19;;;;;;;31.77;14.18;;;;;;;-0.93;100.00;100765.22;5040737;28;20033;-63
2021/12/04 02:50:46;;;;;;;26.40;12.38;;;;;;;-0.91;100.00;100762.50;5049613;28;20082;-65
2021/12/04 02:53:12;;;;;;;31.50;14.43;;;;;;;-0.96;100.00;100759.34;5050935;28;20060;-64
2021/12/04 02:55:39;;;;;;;32.38;15.23;;;;;;;-0.99;100.00;100768.19;5051006;28;20013;-65
2021/12/04 02:58:04;;;;;;;32.90;15.32;;;;;;;-1.06;100.00;100768.66;5050604;28;20052;-65
2021/12/04 03:00:31;;;;;;;22.23;14.40;;;;;;;-1.06;100.00;100790.31;5049241;28;20098;-63
2021/12/04 03:02:57;;;;;;;23.73;12.57;;;;;;;-1.03;100.00;100797.94;5051348;28;20053;-65
2021/12/04 03:05:26;;;;;;;27.23;13.02;;;;;;;-0.99;100.00;100809.84;5050764;28;20023;-64
2021/12/04 03:07:53;;;;;;;30.60;15.00;;;;;;;-0.97;100.00;100805.38;5050519;28;20229;-64
2021/12/04 03:10:20;;;;;;;36.22;14.27;;;;;;;-1.00;100.00;100800.38;5050548;28;20048;-65
2021/12/04 03:12:45;;;;;;;29.88;13.57;;;;;;;-0.99;100.00;100790.78;5049940;28;20025;-63
2021/12/04 03:15:11;;;;;;;28.13;14.35;;;;;;;-0.98;100.00;100776.84;5041519;28;20047;-64
2021/12/04 03:17:37;;;;;;;31.17;16.27;;;;;;;-0.98;100.00;100776.84;5049565;28;20017;-65
2021/12/04 03:20:04;;;;;;;33.92;14.40;;;;;;;-0.93;100.00;100780.84;5049597;28;20036;-64
2021/12/04 03:22:30;;;;;;;27.95;13.45;;;;;;;-0.94;100.00;100781.78;5050487;28;20025;-64
2021/12/04 03:24:57;;;;;;;29.00;14.30;;;;;;;-0.94;100.00;100771.34;5049393;28;20021;-63
2021/12/04 03:27:24;;;;;;;29.38;14.13;;;;;;;-0.99;100.00;100768.19;5049285;28;20029;-64
2021/12/04 03:29:55;;;;;;;33.30;14.35;;;;;;;-1.04;100.00;100762.41;5038876;28;20115;-62
2021/12/04 03:42:57;;;;;;;28.50;13.38;;;;;;;-1.11;100.00;100754.16;5043862;28;20509;-64
2021/12/04 03:45:23;;;;;;;29.58;13.82;;;;;;;-1.18;100.00;100739.84;5049584;28;20021;-64
2021/12/04 03:47:51;;;;;;;27.25;15.15;;;;;;;-1.09;100.00;100743.66;5054179;28;20033;-65
2021/12/04 03:50:18;;;;;;;35.60;17.05;;;;;;;-1.12;100.00;100752.47;5053128;28;20039;-62
2021/12/04 03:52:45;;;;;;;27.15;13.07;;;;;;;-1.21;100.00;100744.41;5054017;28;20067;-65
2021/12/04 03:55:11;;;;;;;32.92;15.23;;;;;;;-1.21;100.00;100744.41;5052991;28;20403;-62
2021/12/04 03:57:44;;;;;;;27.85;14.27;;;;;;;-1.26;100.00;100742.06;5039349;28;20115;-63
2021/12/04 04:00:13;;;;;;;31.92;17.40;;;;;;;-1.35;100.00;100740.03;5050351;28;20398;-63
2021/12/04 04:02:39;;;;;;;24.02;13.88;;;;;;;-1.27;100.00;100763.81;5054156;28;20061;-65
2021/12/04 04:05:05;;;;;;;28.38;12.93;;;;;;;-1.27;100.00;100761.22;5052716;28;20059;-64
2021/12/04 04:07:30;;;;;;;34.20;14.85;;;;;;;-1.33;100.00;100777.22;5055123;28;20021;-64
2021/12/04 04:09:56;;;;;;;25.98;13.63;;;;;;;-1.29;100.00;100770.91;5046832;28;20049;-65
2021/12/04 04:12:22;;;;;;;26.20;14.65;;;;;;;-1.32;100.00;100778.03;5050347;28;20207;-65
2021/12/04 04:14:47;;;;;;;35.22;15.35;;;;;;;-1.31;100.00;100759.75;5053777;28;20036;-64
2021/12/04 04:17:13;;;;;;;27.08;13.45;;;;;;;-1.20;100.00;100766.91;5054995;28;20033;-65
2021/12/04 04:19:38;;;;;;;28.30;13.80;;;;;;;-1.31;100.00;100749.34;5054598;28;20486;-67
2021/12/04 04:22:04;;;;;;;32.65;14.25;;;;;;;-1.21;100.00;100754.81;5053432;28;20112;-65
2021/12/04 04:24:32;;;;;;;29.05;14.90;;;;;;;-1.20;100.00;100766.91;5042689;28;20040;-65
2021/12/04 04:26:58;;;;;;;35.63;14.32;;;;;;;-1.22;100.00;100760.97;5050015;28;20059;-65
2021/12/04 04:29:25;;;;;;;38.08;15.90;;;;;;;-1.18;100.00;100749.41;5053443;28;20079;-64
2021/12/04 04:31:53;;;;;;;29.98;16.67;;;;;;;-1.20;100.00;100759.94;5053281;28;20033;-63
2021/12/04 04:34:34;;;;;;;31.23;16.08;;;;;;;-1.15;100.00;100763.09;5052379;28;20029;-63
2021/12/04 05:15:19;;;;;;;34.88;16.20;;;;;;;-1.23;100.00;100796.56;5047048;28;20036;-65
2021/12/04 05:20:19;;;;;;;33.42;14.75;;;;;;;-1.28;100.00;100788.19;5048455;28;20094;-66
2021/12/04 05:22:45;;;;;;;26.88;15.13;;;;;;;-1.22;100.00;100793.03;5047957;28;20057;-65
2021/12/04 05:25:11;;;;;;;30.65;15.63;;;;;;;-1.20;100.00;100785.94;5052440;28;20517;-65
2021/12/04 05:27:36;;;;;;;26.80;15.93;;;;;;;-1.16;100.00;100782.25;5051301;28;20024;-64
2021/12/04 05:30:04;;;;;;;35.67;15.48;;;;;;;-1.17;100.00;100774.53;5052198;28;20033;-66
2021/12/04 05:32:29;;;;;;;29.60;16.55;;;;;;;-1.20;100.00;100767.72;5052139;28;20078;-64
2021/12/04 05:34:55;;;;;;;32.90;15.77;;;;;;;-1.14;100.00;100776.94;5051821;28;20525;-63
2021/12/04 05:37:20;;;;;;;41.90;16.63;;;;;;;-1.13;100.00;100781.22;5046827;28;20099;-65
2021/12/04 05:39:46;;;;;;;29.83;15.10;;;;;;;-1.22;100.00;100782.63;5052269;28;20160;-64
2021/12/04 05:42:11;;;;;;;39.75;17.30;;;;;;;-1.22;100.00;100786.97;5051807;28;20391;-63
2021/12/04 05:44:38;;;;;;;25.30;14.20;;;;;;;-1.20;100.00;100792.94;5050707;28;20025;-65
2021/12/04 05:47:13;;;;;;;27.60;15.77;;;;;;;-1.13;100.00;100787.25;5053320;28;20037;-65
2021/12/04 05:49:58;;;;;;;34.55;16.55;;;;;;;-1.23;100.00;100785.31;5045827;28;20381;-65
2021/12/04 05:52:37;;;;;;;34.03;18.23;;;;;;;-1.15;100.00;100793.50;5050810;28;20186;-65
2021/12/04 05:55:16;;;;;;;36.30;17.48;;;;;;;-1.18;100.00;100796.25;5050798;28;20082;-66
2021/12/04 05:57:42;;;;;;;57.88;16.75;;;;;;;-1.22;100.00;100798.22;5034510;28;20041;-66
2021/12/04 06:00:12;;;;;;;46.55;17.08;;;;;;;-1.10;100.00;100796.66;5051538;28;20033;-65
2021/12/04 06:02:38;;;;;;;41.10;17.60;;;;;;;-1.22;100.00;100786.97;5046257;28;20030;-64
2021/12/04 06:05:04;;;;;;;42.97;19.38;;;;;;;-1.18;100.00;100791.06;5039572;28;20033;-65
2021/12/04 06:07:30;;;;;;;46.17;17.00;;;;;;;-1.13;100.00;100794.22;5051405;28;20063;-65
2021/12/04 06:09:56;;;;;;;37.17;19.52;;;;;;;-1.12;100.00;100777.69;5051325;28;20053;-64
2021/12/04 06:12:21;;;;;;;35.22;17.55;;;;;;;-1.12;100.00;100780.28;5051622;28;20018;-65
2021/12/04 06:14:49;;;;;;;43.05;19.92;;;;;;;-1.16;100.00;100784.84;5051725;28;20025;-66
2021/12/04 06:17:14;;;;;;;42.05;20.50;;;;;;;-1.05;100.00;100788.56;5041257;28;20100;-63
2021/12/04 06:22:41;;;;;;;61.28;23.33;;;;;;;-0.99;99.66;100783.81;5050307;28;20140;-66
2021/12/04 06:25:19;;;;;;;48.97;20.83;;;;;;;-0.99;99.64;100788.19;5049970;28;20041;-65
2021/12/04 06:27:46;;;;;;;42.85;20.98;;;;;;;-0.96;98.99;100786.22;5052682;28;20072;-64
2021/12/04 06:30:14;;;;;;;58.72;22.45;;;;;;;-0.87;98.24;100788.28;5048658;28;20029;-64
2021/12/04 06:32:42;;;;;;;45.95;23.65;;;;;;;-0.24;97.33;100792.09;5039697;28;20447;-66
2021/12/04 06:35:10;;;;;;;60.20;23.67;;;;;;;1.55;87.68;100788.53;5050852;28;20028;-65
2021/12/04 06:37:36;;;;;;;48.65;22.88;;;;;;;4.55;75.59;100783.38;5050087;28;20025;-65
2021/12/04 06:40:03;;;;;;;44.67;20.17;;;;;;;4.19;73.20;100777.66;5051550;28;20017;-66
2021/12/04 06:42:29;;;;;;;39.97;21.48;;;;;;;1.44;83.81;100771.94;5050760;28;20057;-65
2021/12/04 06:44:56;;;;;;;40.35;20.63;;;;;;;0.96;87.48;100775.31;5049897;28;20517;-65
2021/12/04 06:47:22;;;;;;;50.75;22.58;;;;;;;1.44;86.65;100771.94;5036496;28;20529;-64
2021/12/04 06:49:50;;;;;;;46.47;19.05;;;;;;;5.24;71.75;100773.88;5041908;28;20029;-65
2021/12/04 06:52:19;;;;;;;41.95;21.85;;;;;;;8.86;57.34;100770.22;5048713;28;20103;-65
2021/12/04 06:55:22;;;;;;;47.47;21.15;;;;;;;9.76;51.61;100778.47;5052366;28;20025;-64
2021/12/04 06:57:40;;;;;;;46.40;20.83;;;;;;;10.54;49.61;100770.06;5036905;28;20410;-65
2021/12/04 07:00:10;;;;;;;48.38;20.15;;;;;;;11.24;47.59;100780.81;5041662;28;20063;-64
2021/12/04 07:02:35;;;;;;;38.70;20.95;;;;;;;11.33;46.52;100777.94;5045838;28;20028;-66
2021/12/04 07:05:01;;;;;;;43.33;21.25;;;;;;;12.06;44.40;100789.16;5049592;28;20032;-66
2021/12/04 07:07:26;;;;;;;42.63;20.48;;;;;;;12.26;42.24;100789.47;5049464;28;20083;-65
2021/12/04 07:09:52;;;;;;;40.85;21.02;;;;;;;12.15;42.75;100793.41;5051080;28;20379;-65
2021/12/04 07:12:17;;;;;;;37.40;20.60;;;;;;;12.76;40.87;100796.81;5048177;28;20040;-65
2021/12/04 07:14:43;;;;;;;46.95;22.05;;;;;;;13.87;38.21;100792.28;5034961;28;20436;-67
2021/12/04 07:17:09;;;;;;;40.47;22.60;;;;;;;13.77;39.06;100797.94;5047462;28;20482;-66
2021/12/04 07:19:35;;;;;;;40.20;21.33;;;;;;;14.68;36.62;100790.16;5053471;28;20040;-66
2021/12/04 07:22:02;;;;;;;49.42;23.35;;;;;;;13.67;37.04;100787.59;5050861;28;20652;-66
2021/12/04 07:24:31;;;;;;;42.78;22.90;;;;;;;14.62;36.20;100792.59;5053226;28;20037;-64
2021/12/04 07:26:56;;;;;;;33.65;19.15;;;;;;;14.28;36.36;100793.31;5046560;28;20419;-65
2021/12/04 07:29:22;;;;;;;34.78;20.52;;;;;;;14.17;35.76;100793.00;5048588;28;20029;-65
2021/12/04 07:31:47;;;;;;;39.63;19.52;;;;;;;12.67;38.77;100795.25;5053304;28;20021;-65
2021/12/04 07:34:13;;;;;;;43.97;21.85;;;;;;;11.03;41.01;100787.53;5052766;28;20542;-65
2021/12/04 07:36:38;;;;;;;44.63;22.95;;;;;;;11.35;41.17;100793.69;5052970;28;20032;-65
2021/12/04 07:39:04;;;;;;;43.53;20.67;;;;;;;13.37;37.16;100791.34;5051809;28;20037;-64
2021/12/04 07:41:30;;;;;;;33.55;18.35;;;;;;;13.15;36.52;100787.75;5043424;28;20022;-64
2021/12/04 07:43:56;;;;;;;28.33;17.23;;;;;;;13.95;35.52;100779.66;5050376;28;20051;-65
2021/12/04 07:46:21;;;;;;;38.85;17.92;;;;;;;13.80;34.72;100782.38;5054307;28;20044;-67
2021/12/04 07:48:47;;;;;;;37.58;17.58;;;;;;;12.47;37.10;100783.47;5053102;28;20449;-67
2021/12/04 07:51:17;;;;;;;38.83;17.52;;;;;;;13.94;35.31;100780.69;5051465;28;20596;-65
2021/12/04 07:53:43;;;;;;;36.40;16.20;;;;;;;14.08;34.00;100778.97;5052059;28;20029;-67
2021/12/04 07:56:09;;;;;;;32.83;18.75;;;;;;;14.78;33.88;100780.78;5047044;28;20017;-66
2021/12/04 07:58:35;;;;;;;37.45;18.05;;;;;;;14.33;34.51;100782.91;5047525;28;20029;-66
2021/12/04 08:01:00;;;;;;;33.22;17.92;;;;;;;13.17;37.18;100772.41;5052265;28;20091;-64
2021/12/04 08:03:26;;;;;;;39.63;18.48;;;;;;;14.36;33.86;100763.00;5051147;28;20402;-66
2021/12/04 08:05:51;;;;;;;35.00;17.27;;;;;;;13.93;35.42;100765.69;5051245;28;20037;-66
2021/12/04 08:08:17;;;;;;;39.22;17.00;;;;;;;13.55;35.59;100760.59;5052360;28;20100;-67
2021/12/04 08:10:42;;;;;;;29.02;15.90;;;;;;;14.40;33.12;100758.09;5000182;28;1169275;-66
2021/12/04 08:13:08;;;;;;;29.02;17.38;;;;;;;14.38;33.14;100760.94;5048277;28;20029;-67
2021/12/04 08:15:37;;;;;;;26.10;16.67;;;;;;;13.82;35.21;100758.22;5053756;28;20478;-65
2021/12/04 08:18:04;;;;;;;23.52;16.63;;;;;;;12.99;34.85;100762.94;5052505;28;20068;-65
2021/12/04 08:20:30;;;;;;;31.67;17.55;;;;;;;14.26;33.67;100767.84;5053509;28;20025;-66
2021/12/04 08:22:55;;;;;;;32.10;17.33;;;;;;;10.38;40.73;100768.25;5040735;28;20050;-65
2021/12/04 08:25:21;;;;;;;25.67;16.63;;;;;;;13.52;35.24;100757.50;5036278;28;20605;-66
2021/12/04 08:27:49;;;;;;;24.67;16.27;;;;;;;14.66;33.66;100755.63;5049050;28;20117;-66
2021/12/04 08:30:18;;;;;;;33.00;17.15;;;;;;;14.26;33.34;100766.00;5053447;28;20497;-66
2021/12/04 08:32:44;;;;;;;31.63;16.50;;;;;;;12.23;36.36;100749.94;5052315;28;20036;-67
2021/12/04 08:35:12;;;;;;;32.30;18.35;;;;;;;12.96;34.29;100733.22;5054448;28;20021;-66
2021/12/04 08:37:38;;;;;;;31.70;17.67;;;;;;;13.31;34.61;100736.13;5043827;28;20471;-65
2021/12/04 08:40:11;;;;;;;30.77;17.48;;;;;;;10.14;39.38;100729.31;5049979;28;20040;-66
2021/12/04 08:42:38;;;;;;;39.90;17.45;;;;;;;11.23;39.12;100729.50;5051758;28;20127;-65
2021/12/04 08:45:04;;;;;;;30.45;16.63;;;;;;;13.27;35.12;100727.69;5053001;28;20110;-65
2021/12/04 08:47:29;;;;;;;37.17;19.83;;;;;;;11.30;38.79;100726.97;5053057;28;20032;-65
2021/12/04 08:49:55;;;;;;;28.00;18.15;;;;;;;9.92;41.07;100728.16;5051697;28;20441;-65
2021/12/04 08:52:20;;;;;;;27.63;17.20;;;;;;;11.38;38.64;100724.28;5048380;28;20061;-66
2021/12/04 08:54:46;;;;;;;31.85;16.88;;;;;;;11.42;37.17;100706.19;5050635;28;20021;-65
2021/12/04 08:57:12;;;;;;;34.35;17.35;;;;;;;10.88;39.39;100704.31;5052470;28;20028;-66
2021/12/04 08:59:38;;;;;;;35.08;17.48;;;;;;;10.85;40.21;100694.00;5051527;28;20029;-67
2021/12/04 09:02:04;;;;;;;24.58;15.75;;;;;;;11.65;37.81;100708.84;5053895;28;20021;-66
2021/12/04 09:04:32;;;;;;;36.90;16.27;;;;;;;12.45;36.07;100693.19;5051374;28;20035;-65
2021/12/04 09:06:59;;;;;;;32.25;17.52;;;;;;;10.06;40.18;100689.53;5041115;28;20368;-67
2021/12/04 09:09:27;;;;;;;34.40;17.02;;;;;;;11.41;39.37;100688.59;5049626;28;20049;-65
2021/12/04 09:11:56;;;;;;;30.67;16.77;;;;;;;12.84;35.43;100668.94;5052151;28;20033;-67
2021/12/04 09:14:25;;;;;;;27.33;16.10;;;;;;;11.47;37.43;100672.78;5037043;28;20434;-65
2021/12/04 09:16:52;;;;;;;35.17;17.25;;;;;;;11.16;38.50;100670.13;5049527;28;20025;-63
2021/12/04 09:19:18;;;;;;;32.90;16.88;;;;;;;8.38;44.31;100659.75;5052333;28;20090;-65
2021/12/04 09:21:45;;;;;;;41.42;18.02;;;;;;;7.19;47.78;100662.72;5037235;28;20504;-65
2021/12/04 09:24:17;;;;;;;27.25;16.55;;;;;;;6.26;50.19;100663.78;5050042;28;20043;-65
2021/12/04 10:18:48;;;;;;;40.70;17.58;;;;;;;4.44;56.71;100575.00;5033333;28;20521;-64
2021/12/04 10:21:26;;;;;;;31.38;16.60;;;;;;;4.18;55.85;100565.91;5052586;28;20056;-66
2021/12/04 10:24:04;;;;;;;39.90;17.52;;;;;;;4.19;55.99;100562.34;5050866;28;20055;-64
2021/12/04 10:34:55;;;;;;;40.60;16.63;;;;;;;3.62;58.31;100552.41;5051077;28;20520;-65
2021/12/04 10:37:24;;;;;;;35.58;15.35;;;;;;;3.83;56.68;100548.78;5052162;28;20032;-65
2021/12/04 10:39:59;;;;;;;25.90;15.00;;;;;;;3.39;57.65;100536.81;5050866;28;20099;-64
2021/12/04 10:42:33;;;;;;;30.38;15.85;;;;;;;3.64;57.20;100538.19;5049410;28;20017;-66
2021/12/04 10:44:59;;;;;;;33.25;16.48;;;;;;;3.99;56.74;100535.19;5032964;28;20118;-65
2021/12/04 10:47:27;;;;;;;35.03;16.98;;;;;;;3.76;56.46;100525.84;5047696;28;20108;-64
2021/12/04 10:50:33;;;;;;;29.00;16.40;;;;;;;4.07;56.16;100524.03;5051791;28;20496;-65
2021/12/04 10:53:01;;;;;;;32.47;16.75;;;;;;;4.03;56.83;100525.25;5049713;28;20082;-65
2021/12/04 10:59:12;;;;;;;32.53;16.17;;;;;;;4.07;55.65;100516.97;5058040;28;20131;-64
2021/12/04 11:04:55;;;;;;;38.83;17.58;;;;;;;4.21;54.68;100515.78;5060557;28;20040;-67
2021/12/04 11:18:50;;;;;;;27.05;14.02;;;;;;;4.11;53.57;100510.50;5049422;28;20036;-64
2021/12/04 11:21:54;;;;;;;31.52;16.65;;;;;;;3.96;54.66;100510.97;5050151;28;20380;-65
2021/12/04 11:41:10;;;;;;;31.45;16.42;;;;;;;3.92;55.75;100471.06;5043266;28;20049;-65
2021/12/04 11:43:04;;;;;;;34.25;15.98;;;;;;;3.67;58.55;100464.47;5041748;28;20095;-65
2021/12/04 11:48:43;;;;;;;31.70;16.95;;;;;;;3.85;58.19;100449.78;5033291;28;20033;-66
2021/12/04 11:51:14;;;;;;;;;;;;;;;3.85;58.24;100441.91;5048540;28;20056;-64
2021/12/04 11:53:40;;;;;;;34.95;18.95;;;;;;;3.85;58.29;100443.69;5036213;28;19917;-65
2021/12/04 11:56:14;;;;;;;38.20;18.52;;;;;;;4.04;57.87;100443.75;5043173;28;20394;-65
2021/12/04 11:58:42;;;;;;;55.05;21.30;;;;;;;4.10;58.25;100442.38;5049025;28;20086;-65
2021/12/04 12:01:20;;;;;;;35.88;17.17;;;;;;;4.00;58.82;100439.72;5051488;28;20433;-66
2021/12/04 12:03:55;;;;;;;47.33;19.20;;;;;;;3.93;59.32;100425.47;5052305;28;20382;-67
2021/12/04 12:06:30;;;;;;;40.75;18.73;;;;;;;3.99;59.34;100429.38;5053902;28;20081;-65
2021/12/04 12:09:10;;;;;;;43.80;19.98;;;;;;;3.79;59.74;100431.09;5045292;28;20026;-64
2021/12/04 12:11:36;;;;;;;40.85;20.15;;;;;;;3.85;59.73;100427.94;5045827;28;20177;-65
2021/12/04 12:14:12;;;;;;;45.13;21.15;;;;;;;3.83;59.24;100428.09;5053711;28;20021;-66
2021/12/04 12:16:47;;;;;;;28.08;15.63;;;;;;;3.32;61.85;100428.16;5053448;28;20148;-66
2021/12/04 12:19:26;;;;;;;44.58;20.70;;;;;;;3.42;61.16;100415.91;5052472;28;20021;-67
2021/12/04 12:21:57;;;;;;;42.78;18.48;;;;;;;3.21;61.82;100422.97;5050468;28;20037;-67
2021/12/04 12:36:12;;;;;;;39.20;20.08;;;;;;;3.71;57.97;100399.47;5032001;28;20040;-66
2021/12/04 12:38:58;;;;;;;;;;;;;;;3.63;57.41;100408.00;5053616;28;20033;-65
2021/12/04 12:41:42;;;;;;;32.05;16.17;;;;;;;3.67;56.81;100405.91;5053022;28;19923;-65
2021/12/04 12:44:29;;;;;;;41.15;19.67;;;;;;;3.37;58.10;100404.97;5052754;28;20040;-65
2021/12/04 12:47:15;;;;;;;38.08;18.90;;;;;;;3.41;57.48;100397.69;5053648;28;20029;-66
2021/12/04 12:49:44;;;;;;;34.15;16.95;;;;;;;2.85;58.19;100400.69;5052006;28;21841;-65
2021/12/04 12:52:09;;;;;;;30.90;17.48;;;;;;;3.07;58.17;100402.34;5038852;28;20021;-65
2021/12/04 12:54:49;;;;;;;41.70;16.90;;;;;;;3.18;58.34;100397.03;5053907;28;20025;-66
2021/12/04 12:57:26;;;;;;;32.40;15.77;;;;;;;2.89;58.94;100400.31;5054182;28;20115;-67
2021/12/04 13:11:42;;;;;;;32.85;15.60;;;;;;;2.83;58.67;100394.75;5034300;28;20041;-66
2021/12/04 13:14:12;;;;;;;42.97;17.25;;;;;;;2.89;58.96;100395.09;5050638;28;20033;-64
2021/12/04 13:16:42;;;;;;;41.47;18.92;;;;;;;2.90;58.52;100396.75;5051241;28;20055;-63
2021/12/04 13:19:12;;;;;;;35.15;17.20;;;;;;;2.49;59.18;100364.34;5042652;28;20033;-64
2021/12/04 13:21:42;;;;;;;35.42;15.48;;;;;;;2.68;58.64;100395.09;5040233;28;20053;-66
2021/12/04 13:24:12;;;;;;;33.60;17.08;;;;;;;2.75;58.83;100388.38;5053552;28;20091;-66
2021/12/04 13:26:45;;;;;;;37.88;19.13;;;;;;;2.85;57.20;100385.81;5052355;28;20020;-66
2021/12/04 13:29:13;;;;;;;34.38;16.55;;;;;;;2.67;56.88;100382.13;5051205;28;20477;-66
2021/12/04 13:31:39;;;;;;;37.25;16.10;;;;;;;2.70;55.07;100389.72;5053518;28;20144;-65
2021/12/04 13:34:07;;;;;;;29.95;14.40;;;;;;;2.65;55.81;100377.03;5036126;28;20160;-64
2021/12/04 13:36:33;;;;;;;41.08;16.27;;;;;;;2.68;55.51;100387.22;5041687;28;20025;-65
2021/12/04 13:39:03;;;;;;;56.13;18.55;;;;;;;2.67;55.13;100380.34;5051002;28;20501;-66
2021/12/04 13:41:31;;;;;;;38.50;17.10;;;;;;;2.75;53.56;100379.69;5051404;28;20104;-67
2021/12/04 13:44:00;;;;;;;42.67;17.77;;;;;;;2.75;54.03;100375.28;5050882;28;20056;-64
2021/12/04 13:46:26;;;;;;;29.27;14.65;;;;;;;2.56;53.93;100380.38;5045672;28;20027;-66
2021/12/04 13:49:00;;;;;;;30.45;14.95;;;;;;;2.58;53.30;100368.00;5042302;28;20082;-65
2021/12/04 13:51:26;;;;;;;34.85;15.80;;;;;;;2.59;53.62;100381.94;5051838;28;20102;-66
2021/12/04 13:53:52;;;;;;;25.05;13.50;;;;;;;2.47;53.84;100374.13;5051525;28;20033;-63
2021/12/04 13:56:20;;;;;;;30.35;13.63;;;;;;;2.45;54.07;100381.28;5052078;28;20032;-65
2021/12/04 13:59:02;;;;;;;32.85;13.02;;;;;;;2.41;54.22;100379.03;5051625;28;20116;-63
2021/12/04 14:01:30;;;;;;;28.45;15.63;;;;;;;2.36;55.92;100379.41;5049879;28;20025;-66
2021/12/04 14:04:00;;;;;;;20.67;12.30;;;;;;;2.26;55.46;100383.72;5046196;28;20036;-67
2021/12/04 14:06:27;;;;;;;25.40;13.40;;;;;;;2.20;57.11;100381.59;5051392;28;20079;-66
2021/12/04 14:09:10;;;;;;;26.15;12.50;;;;;;;2.14;56.18;100380.34;5050097;28;20033;-65
2021/12/04 14:11:39;;;;;;;26.52;13.88;;;;;;;2.09;57.84;100379.03;5051431;28;20025;-66
2021/12/04 14:14:21;;;;;;;34.80;13.98;;;;;;;2.03;57.96;100379.53;5050519;28;20490;-65
2021/12/04 14:16:51;;;;;;;38.55;14.60;;;;;;;1.93;58.72;100377.66;5040634;28;20076;-63
2021/12/04 14:19:25;;;;;;;47.42;16.70;;;;;;;1.93;59.29;100377.66;5050216;28;20478;-66
2021/12/04 14:22:13;;;;;;;44.33;15.00;;;;;;;1.87;60.03;100380.75;5051794;28;20437;-65